Time;durP1;ratioP1;P1;durP2;ratioP2;P2;SDS_P1;SDS_P2;PMS_P1;PMS_P2;Temp;Humidity;BMP_temperature;BMP_pressure;BME280_temperature;BME280_humidity;BME280_pressure;Samples;Min_cycle;Max_cycle;Signal;HPM_P1;HPM_P2
2023/08/01 00:00:48;;;;;;;4.47;2.97;;;18.80;98.00;;;;;;5037062;28;20446;-68
2023/08/01 00:03:15;;;;;;;3.43;2.37;;;18.80;98.00;;;;;;5054434;28;20485;-69
2023/08/01 00:05:44;;;;;;;5.10;2.90;;;18.80;98.00;;;;;;5054684;28;20458;-69
2023/08/01 00:08:13;;;;;;;5.10;2.80;;;18.80;98.00;;;;;;5054442;28;20461;-69
2023/08/01 00:10:40;;;;;;;4.73;3.00;;;18.80;98.00;;;;;;5054456;28;20482;-69
2023/08/01 00:13:09;;;;;;;3.40;2.50;;;18.80;98.00;;;;;;5054474;28;20442;-69
2023/08/01 00:15:36;;;;;;;4.03;2.60;;;18.80;98.00;;;;;;5054077;28;20454;-70
2023/08/01 00:18:04;;;;;;;4.63;2.73;;;18.80;98.00;;;;;;5054375;28;20450;-69
2023/08/01 00:20:31;;;;;;;6.30;2.63;;;18.90;98.00;;;;;;5036733;28;20462;-70
2023/08/01 00:22:58;;;;;;;4.00;2.77;;;18.90;98.00;;;;;;5054305;28;20870;-70
2023/08/01 00:25:25;;;;;;;3.80;2.53;;;18.90;98.00;;;;;;5054227;28;20485;-70
2023/08/01 00:27:54;;;;;;;4.67;2.73;;;18.90;98.00;;;;;;5054233;28;20500;-69
2023/08/01 00:30:22;;;;;;;5.43;2.77;;;18.90;98.00;;;;;;5054295;28;20457;-69
2023/08/01 00:32:50;;;;;;;3.73;2.63;;;18.80;98.00;;;;;;5054108;28;20453;-70
2023/08/01 00:35:17;;;;;;;5.90;3.40;;;18.70;98.00;;;;;;5053827;28;20454;-70
2023/08/01 00:37:44;;;;;;;4.93;2.90;;;18.60;98.00;;;;;;5053919;28;20457;-70
2023/08/01 00:40:12;;;;;;;5.10;3.00;;;18.70;98.00;;;;;;5053676;28;20457;-69
2023/08/01 00:42:39;;;;;;;5.50;2.97;;;18.50;98.00;;;;;;5053348;28;20872;-70
2023/08/01 00:45:08;;;;;;;5.37;3.07;;;18.40;98.00;;;;;;5053590;28;20457;-69
2023/08/01 00:47:36;;;;;;;8.23;3.30;;;18.40;98.00;;;;;;5053400;28;20532;-69
2023/08/01 00:50:08;;;;;;;4.30;2.83;;;18.30;98.00;;;;;;5053400;28;20481;-69
2023/08/01 00:52:35;;;;;;;4.60;2.73;;;18.30;98.00;;;;;;5053589;28;20477;-70
2023/08/01 00:55:05;;;;;;;6.43;3.00;;;18.40;98.00;;;;;;5053434;28;20454;-70
2023/08/01 00:57:33;;;;;;;6.43;3.33;;;18.30;98.00;;;;;;5053276;28;20462;-69
2023/08/01 01:00:00;;;;;;;5.27;2.80;;;18.40;98.00;;;;;;5053437;28;20472;-70
2023/08/01 01:02:27;;;;;;;4.30;2.83;;;18.30;98.00;;;;;;5053361;28;20462;-69
2023/08/01 01:04:56;;;;;;;4.63;2.80;;;18.30;98.00;;;;;;5053558;28;20465;-70
2023/08/01 01:07:24;;;;;;;4.80;3.00;;;18.30;98.00;;;;;;5053533;28;20442;-70
2023/08/01 01:09:52;;;;;;;6.20;3.50;;;18.40;98.00;;;;;;5052890;28;20469;-70
2023/08/01 01:12:19;;;;;;;4.30;2.57;;;18.40;98.00;;;;;;5035989;28;20450;-69
2023/08/01 01:14:46;;;;;;;4.63;2.50;;;18.40;98.00;;;;;;5053167;28;20854;-69
2023/08/01 01:17:13;;;;;;;7.10;3.43;;;18.40;98.00;;;;;;5053241;28;20456;-69
2023/08/01 01:19:40;;;;;;;4.20;2.80;;;18.40;98.00;;;;;;5053206;28;20970;-70
2023/08/01 01:22:21;;;;;;;6.20;3.30;;;18.40;98.00;;;;;;5053382;28;20457;-70
2023/08/01 01:24:49;;;;;;;4.10;2.60;;;18.40;98.00;;;;;;5053019;28;20481;-69
2023/08/01 01:27:18;;;;;;;5.13;3.00;;;18.30;98.00;;;;;;5053152;28;20465;-69
2023/08/01 01:29:46;;;;;;;8.60;3.40;;;18.30;98.00;;;;;;5052632;28;20541;-69
2023/08/01 01:32:13;;;;;;;4.50;2.60;;;18.40;98.00;;;;;;5053004;28;21032;-68
2023/08/01 01:34:41;;;;;;;5.10;2.93;;;18.40;98.00;;;;;;5052586;28;20457;-70
2023/08/01 01:37:09;;;;;;;4.57;2.70;;;18.30;98.00;;;;;;5052700;28;20453;-70
2023/08/01 01:39:37;;;;;;;5.07;2.80;;;18.30;98.00;;;;;;5052580;28;20535;-69
2023/08/01 01:42:05;;;;;;;5.60;2.90;;;18.30;98.00;;;;;;5052664;28;20453;-69
2023/08/01 01:44:32;;;;;;;3.80;2.60;;;18.20;98.00;;;;;;5052609;28;20493;-69
2023/08/01 01:46:59;;;;;;;4.47;2.87;;;18.20;98.00;;;;;;5052707;28;20457;-69
2023/08/01 01:49:26;;;;;;;4.97;3.00;;;18.30;98.00;;;;;;5052474;28;20457;-69
2023/08/01 01:51:53;;;;;;;7.93;3.00;;;18.40;98.00;;;;;;5052553;28;20453;-70
2023/08/01 01:54:20;;;;;;;4.90;2.77;;;18.40;98.00;;;;;;5033884;28;20450;-69
2023/08/01 01:56:49;;;;;;;5.83;2.90;;;18.50;98.00;;;;;;5052444;28;20446;-70
2023/08/01 01:59:17;;;;;;;4.80;2.70;;;18.50;98.00;;;;;;5052424;28;20453;-69
2023/08/01 02:01:44;;;;;;;5.67;3.03;;;18.60;98.00;;;;;;5052307;28;20450;-69
2023/08/01 02:04:11;;;;;;;4.50;2.53;;;18.80;98.00;;;;;;5052085;28;20496;-70
2023/08/01 02:06:38;;;;;;;4.93;2.60;;;18.70;98.00;;;;;;5052283;28;20454;-70
2023/08/01 02:09:05;;;;;;;8.03;2.73;;;18.50;98.00;;;;;;5052040;28;20457;-70
2023/08/01 02:11:32;;;;;;;9.67;3.50;;;18.40;98.00;;;;;;5034732;28;20504;-69
2023/08/01 02:14:01;;;;;;;5.40;3.20;;;18.30;98.00;;;;;;5052278;28;20461;-70
2023/08/01 02:16:28;;;;;;;4.10;2.70;;;18.20;98.00;;;;;;5052498;28;20842;-70
2023/08/01 02:18:56;;;;;;;4.03;2.60;;;18.30;98.00;;;;;;5052292;28;20453;-69
2023/08/01 02:21:24;;;;;;;5.40;3.40;;;18.30;98.00;;;;;;5034372;28;20461;-70
2023/08/01 02:23:51;;;;;;;5.30;2.80;;;18.40;98.00;;;;;;5051792;28;20488;-69
2023/08/01 02:26:18;;;;;;;4.73;2.60;;;18.30;98.00;;;;;;5052197;28;20453;-70
2023/08/01 02:28:45;;;;;;;4.70;2.90;;;18.20;98.00;;;;;;5033971;28;20468;-70
2023/08/01 02:31:13;;;;;;;4.43;3.13;;;18.10;98.00;;;;;;5051929;28;20449;-69
2023/08/01 02:33:42;;;;;;;4.67;2.57;;;18.10;98.00;;;;;;5051759;28;20952;-70
2023/08/01 02:36:09;;;;;;;6.33;3.07;;;18.10;98.00;;;;;;5034102;28;20928;-69
2023/08/01 02:38:36;;;;;;;13.07;3.10;;;18.10;98.00;;;;;;5051563;28;20527;-70
2023/08/01 02:41:03;;;;;;;4.40;2.50;;;18.10;98.00;;;;;;5051451;28;20457;-70
2023/08/01 02:43:30;;;;;;;5.00;2.93;;;18.00;98.00;;;;;;5051592;28;20485;-70
2023/08/01 02:45:59;;;;;;;4.20;2.57;;;18.10;98.00;;;;;;5051744;28;20457;-70
2023/08/01 02:48:29;;;;;;;5.87;2.60;;;18.10;98.00;;;;;;5051662;28;20450;-70
2023/08/01 02:50:57;;;;;;;5.27;3.03;;;18.20;98.00;;;;;;5051703;28;20453;-70
2023/08/01 02:53:24;;;;;;;10.50;3.10;;;18.30;98.00;;;;;;5051729;28;20488;-70
2023/08/01 02:55:51;;;;;;;5.60;2.67;;;18.20;98.00;;;;;;5051592;28;20485;-70
2023/08/01 02:58:18;;;;;;;4.80;2.70;;;18.10;98.00;;;;;;5051583;28;20445;-69
2023/08/01 03:00:45;;;;;;;6.73;3.10;;;18.10;98.00;;;;;;5051576;28;20464;-70
2023/08/01 03:03:12;;;;;;;4.47;2.87;;;18.00;98.00;;;;;;5051523;28;20457;-69
2023/08/01 03:05:40;;;;;;;7.10;3.00;;;18.00;98.00;;;;;;5054001;28;20455;-70
2023/08/01 03:08:07;;;;;;;4.60;2.70;;;18.00;98.00;;;;;;5055674;28;20814;-70
2023/08/01 03:10:35;;;;;;;5.57;2.73;;;18.00;98.00;;;;;;5055741;28;20453;-70
2023/08/01 03:13:02;;;;;;;5.73;2.60;;;18.00;98.00;;;;;;5055810;28;20446;-71
2023/08/01 03:15:29;;;;;;;5.73;3.17;;;18.10;98.00;;;;;;5055684;28;20484;-71
2023/08/01 03:17:57;;;;;;;4.90;2.87;;;18.10;98.00;;;;;;5055338;28;20792;-71
2023/08/01 03:20:24;;;;;;;7.33;2.97;;;18.00;98.00;;;;;;5055327;28;20950;-70
2023/08/01 03:22:52;;;;;;;5.03;2.93;;;18.00;98.00;;;;;;5055176;28;20457;-69
2023/08/01 03:25:19;;;;;;;3.23;2.27;;;18.00;98.00;;;;;;5055175;28;20485;-69
2023/08/01 03:27:47;;;;;;;11.97;3.00;;;18.10;98.00;;;;;;5054877;28;20448;-70
2023/08/01 03:30:14;;;;;;;5.40;2.97;;;18.20;98.00;;;;;;5055063;28;20825;-69
2023/08/01 03:32:41;;;;;;;6.03;2.97;;;18.20;98.00;;;;;;5055100;28;20465;-70
2023/08/01 03:35:08;;;;;;;6.03;2.70;;;18.20;98.00;;;;;;5037429;28;20963;-70
2023/08/01 03:37:35;;;;;;;6.33;3.20;;;18.20;98.00;;;;;;5055017;28;20457;-69
2023/08/01 03:40:05;;;;;;;6.70;3.20;;;18.30;98.00;;;;;;5054980;28;20947;-69
2023/08/01 03:42:32;;;;;;;3.97;2.47;;;18.30;98.00;;;;;;5037204;28;20453;-69
2023/08/01 03:44:59;;;;;;;6.10;2.73;;;18.40;98.00;;;;;;5037208;28;20486;-70
2023/08/01 03:47:26;;;;;;;3.80;2.43;;;18.50;98.00;;;;;;5054854;28;20854;-70
2023/08/01 03:49:53;;;;;;;5.47;2.90;;;18.60;98.00;;;;;;5037232;28;20452;-70
2023/08/01 03:52:20;;;;;;;6.40;3.17;;;18.70;98.00;;;;;;5055009;28;20871;-69
2023/08/01 03:54:48;;;;;;;6.50;2.80;;;18.70;98.00;;;;;;5054703;28;20527;-70
2023/08/01 03:57:17;;;;;;;5.20;3.00;;;18.70;98.00;;;;;;5054875;28;20460;-69
2023/08/01 03:59:44;;;;;;;3.63;2.37;;;18.70;98.00;;;;;;5036859;28;20462;-69
2023/08/01 04:02:13;;;;;;;4.70;2.87;;;18.70;98.00;;;;;;5037089;28;20952;-70
2023/08/01 04:04:40;;;;;;;4.13;2.70;;;18.70;98.00;;;;;;5054274;28;20492;-70
2023/08/01 04:07:07;;;;;;;3.63;2.37;;;18.80;98.00;;;;;;5055048;28;20461;-69
2023/08/01 04:09:34;;;;;;;7.17;2.97;;;18.80;98.00;;;;;;5054465;28;20461;-69
2023/08/01 04:12:01;;;;;;;5.53;2.87;;;18.90;98.00;;;;;;5036494;28;21045;-69
2023/08/01 04:14:30;;;;;;;4.43;2.50;;;18.90;98.00;;;;;;5054411;28;20450;-69
2023/08/01 04:16:57;;;;;;;5.20;2.67;;;19.00;98.00;;;;;;5035804;28;20461;-70
2023/08/01 04:19:24;;;;;;;5.63;2.67;;;19.00;98.00;;;;;;5054218;28;20457;-70
2023/08/01 04:21:51;;;;;;;5.73;2.90;;;19.10;98.00;;;;;;5054107;28;20454;-70
2023/08/01 04:24:24;;;;;;;5.37;2.73;;;19.10;98.00;;;;;;5053982;28;20481;-69
2023/08/01 04:26:52;;;;;;;6.03;3.17;;;19.10;98.00;;;;;;5054257;28;20457;-70
2023/08/01 04:29:21;;;;;;;4.77;2.93;;;19.10;98.00;;;;;;5053910;28;20458;-70
2023/08/01 04:34:18;;;;;;;5.40;2.73;;;19.20;98.00;;;;;;5032173;28;20478;-69
2023/08/01 04:36:45;;;;;;;3.23;2.37;;;19.20;98.00;;;;;;5224991;22;20498;-70
2023/08/01 04:39:12;;;;;;;5.27;2.77;;;19.20;98.00;;;;;;5033329;28;20592;-70
2023/08/01 04:41:39;;;;;;;6.37;3.27;;;19.20;98.00;;;;;;5033633;28;20479;-69
2023/08/01 04:44:06;;;;;;;6.00;2.40;;;19.20;98.00;;;;;;5033147;28;20479;-70
2023/08/01 04:46:33;;;;;;;4.77;2.70;;;19.20;98.00;;;;;;5033234;28;20466;-70
2023/08/01 04:49:00;;;;;;;4.30;2.60;;;19.20;98.00;;;;;;5033019;28;20458;-69
2023/08/01 04:51:30;;;;;;;7.13;2.90;;;19.20;98.00;;;;;;5015521;28;20544;-69
2023/08/01 04:53:57;;;;;;;4.07;2.50;;;19.20;98.00;;;;;;5032977;28;20458;-70
2023/08/01 04:56:24;;;;;;;5.37;2.63;;;19.30;98.00;;;;;;5033092;28;20458;-70
2023/08/01 04:58:53;;;;;;;8.50;2.70;;;19.30;98.00;;;;;;5033476;28;20839;-69
2023/08/01 05:01:23;;;;;;;6.17;3.20;;;19.30;98.00;;;;;;5033922;28;20466;-70
2023/08/01 05:03:50;;;;;;;4.43;2.67;;;19.30;98.00;;;;;;5033743;28;20466;-69
2023/08/01 05:06:17;;;;;;;5.00;2.87;;;19.40;98.00;;;;;;5033343;28;20455;-69
2023/08/01 05:08:45;;;;;;;4.00;2.60;;;19.40;98.00;;;;;;5033395;28;20458;-70
2023/08/01 05:11:12;;;;;;;7.30;3.10;;;19.50;98.00;;;;;;5033344;28;20451;-70
2023/08/01 05:13:39;;;;;;;5.70;2.87;;;19.50;98.00;;;;;;5033127;28;20451;-70
2023/08/01 05:16:07;;;;;;;4.90;2.50;;;19.50;98.00;;;;;;5033118;28;20455;-70
2023/08/01 05:18:34;;;;;;;7.83;2.80;;;19.50;98.00;;;;;;5033207;28;20454;-70
2023/08/01 05:21:01;;;;;;;5.53;2.50;;;19.50;98.00;;;;;;5033010;28;20487;-70
2023/08/01 05:23:28;;;;;;;4.73;2.73;;;19.70;98.00;;;;;;5032879;28;20473;-69
2023/08/01 05:25:56;;;;;;;4.10;2.80;;;19.70;98.00;;;;;;5032451;28;20478;-69
2023/08/01 05:28:23;;;;;;;6.00;2.83;;;19.80;98.00;;;;;;5032372;28;20454;-69
2023/08/01 05:30:50;;;;;;;3.77;2.70;;;19.80;98.00;;;;;;5032565;28;20457;-70
2023/08/01 05:33:17;;;;;;;4.80;2.90;;;19.80;98.00;;;;;;5032612;28;20948;-70
2023/08/01 05:35:44;;;;;;;5.30;2.93;;;19.70;98.00;;;;;;5032098;28;20467;-69
2023/08/01 05:38:13;;;;;;;5.27;2.83;;;19.60;98.00;;;;;;5032981;28;20805;-70
2023/08/01 05:40:41;;;;;;;4.60;2.50;;;19.50;98.00;;;;;;5015715;28;20455;-70
2023/08/01 05:43:09;;;;;;;5.30;2.77;;;19.60;98.00;;;;;;5015186;28;21027;-70
2023/08/01 05:45:36;;;;;;;4.90;2.97;;;19.50;98.00;;;;;;5032705;28;20764;-70
2023/08/01 05:48:04;;;;;;;4.73;2.50;;;19.40;98.00;;;;;;5032845;28;20879;-70
2023/08/01 05:50:31;;;;;;;5.57;2.90;;;19.40;98.00;;;;;;5032655;28;20949;-71
2023/08/01 05:52:58;;;;;;;6.80;2.40;;;19.30;98.00;;;;;;5015108;28;20454;-70
2023/08/01 05:55:25;;;;;;;4.90;2.73;;;19.30;98.00;;;;;;5036649;28;20450;-71
2023/08/01 05:57:53;;;;;;;3.37;2.47;;;19.20;98.00;;;;;;5014453;28;20486;-70
2023/08/01 06:00:22;;;;;;;4.00;2.33;;;19.20;98.00;;;;;;5032754;28;20921;-69
2023/08/01 06:02:49;;;;;;;5.30;3.00;;;19.10;98.00;;;;;;5032709;28;20501;-69
2023/08/01 06:05:16;;;;;;;5.73;2.70;;;19.10;98.00;;;;;;5031946;28;20483;-64
2023/08/01 06:07:43;;;;;;;5.17;2.77;;;19.10;98.00;;;;;;5014689;28;20458;-63
2023/08/01 06:10:11;;;;;;;3.63;2.47;;;19.00;98.00;;;;;;5032780;28;20460;-63
2023/08/01 06:12:38;;;;;;;5.50;2.80;;;18.90;98.00;;;;;;5015170;28;20451;-63
2023/08/01 06:15:06;;;;;;;4.93;2.90;;;18.90;98.00;;;;;;5031587;28;20455;-63
2023/08/01 06:17:35;;;;;;;4.33;2.70;;;18.80;98.00;;;;;;5031513;28;20472;-63
2023/08/01 06:20:04;;;;;;;4.40;2.80;;;18.80;98.00;;;;;;5031721;28;20538;-63
2023/08/01 06:22:31;;;;;;;4.83;2.90;;;18.90;98.00;;;;;;5031515;28;20450;-63
2023/08/01 06:24:58;;;;;;;3.90;2.50;;;18.90;98.00;;;;;;5031372;28;20570;-63
2023/08/01 06:27:25;;;;;;;3.80;2.53;;;18.90;98.00;;;;;;5031403;28;20451;-63
2023/08/01 06:29:52;;;;;;;17.57;7.10;;;18.90;98.00;;;;;;5031405;28;20490;-63
2023/08/01 06:32:19;;;;;;;15.60;7.30;;;18.90;98.00;;;;;;5031458;28;20520;-63
2023/08/01 06:34:49;;;;;;;7.70;3.73;;;18.80;98.00;;;;;;5031347;28;20473;-64
2023/08/01 06:37:16;;;;;;;6.27;3.17;;;18.80;98.00;;;;;;5031117;28;20523;-63
2023/08/01 06:39:43;;;;;;;6.20;3.03;;;18.80;98.00;;;;;;5030819;28;20456;-63
2023/08/01 06:42:10;;;;;;;5.97;2.80;;;18.80;98.00;;;;;;5031330;28;20951;-63
2023/08/01 06:44:37;;;;;;;8.70;3.00;;;19.00;98.00;;;;;;5031266;28;20489;-63
2023/08/01 06:47:04;;;;;;;7.57;2.90;;;19.00;98.00;;;;;;5031392;28;20455;-63
2023/08/01 06:49:33;;;;;;;4.17;2.60;;;19.00;98.00;;;;;;5031205;28;20451;-63
2023/08/01 06:52:01;;;;;;;5.57;2.57;;;19.10;98.00;;;;;;5031395;28;20454;-63
2023/08/01 06:54:28;;;;;;;6.70;2.87;;;19.10;98.00;;;;;;5013368;28;20961;-63
2023/08/01 06:56:55;;;;;;;5.30;2.60;;;19.10;98.00;;;;;;5031155;28;20462;-65
2023/08/01 06:59:22;;;;;;;4.33;2.80;;;19.10;98.00;;;;;;5031067;28;20454;-63
2023/08/01 07:01:49;;;;;;;6.50;3.47;;;19.20;98.00;;;;;;5030732;28;20505;-63
2023/08/01 07:04:17;;;;;;;4.73;2.37;;;19.10;98.00;;;;;;5031093;28;20465;-63
2023/08/01 07:06:44;;;;;;;8.30;3.50;;;19.00;98.00;;;;;;5030840;28;20466;-63
2023/08/01 07:09:13;;;;;;;5.17;3.23;;;18.80;98.00;;;;;;5030989;28;20446;-63
2023/08/01 07:11:40;;;;;;;7.87;3.23;;;18.70;98.00;;;;;;5013537;28;20455;-63
2023/08/01 07:14:07;;;;;;;5.97;3.03;;;18.70;98.00;;;;;;5030868;28;20462;-64
2023/08/01 07:16:34;;;;;;;7.27;3.30;;;18.70;98.00;;;;;;5030883;28;20831;-63
2023/08/01 07:19:02;;;;;;;6.57;3.10;;;18.60;98.00;;;;;;5030804;28;20454;-63
2023/08/01 07:21:29;;;;;;;7.07;3.43;;;18.50;98.00;;;;;;5035784;28;20441;-63
2023/08/01 07:23:57;;;;;;;5.77;2.87;;;18.60;98.00;;;;;;5050623;28;20482;-63
2023/08/01 07:26:28;;;;;;;5.37;2.87;;;18.50;98.00;;;;;;5050557;28;20485;-63
2023/08/01 07:28:55;;;;;;;6.57;3.27;;;18.50;98.00;;;;;;5049634;28;20446;-64
2023/08/01 07:31:23;;;;;;;5.73;2.80;;;18.50;98.00;;;;;;5030727;28;20794;-64
2023/08/01 07:33:51;;;;;;;10.00;3.13;;;18.50;98.00;;;;;;5030907;28;21021;-63
2023/08/01 07:36:26;;;;;;;5.93;3.10;;;18.40;98.00;;;;;;5030626;28;20925;-64
2023/08/01 07:38:56;;;;;;;7.30;2.93;;;18.40;98.00;;;;;;5031048;28;20516;-64
2023/08/01 07:41:23;;;;;;;7.53;3.03;;;18.40;98.00;;;;;;5033227;28;20465;-65
2023/08/01 07:43:52;;;;;;;7.30;3.90;;;18.40;98.00;;;;;;5050856;28;20454;-64
2023/08/01 07:46:19;;;;;;;5.27;2.93;;;18.40;98.00;;;;;;5035528;28;20486;-65
2023/08/01 07:48:46;;;;;;;6.20;2.87;;;18.60;98.00;;;;;;5030452;28;20831;-64
2023/08/01 07:51:13;;;;;;;5.37;3.07;;;18.60;98.00;;;;;;5030575;28;20454;-64
2023/08/01 07:53:41;;;;;;;6.80;2.97;;;18.70;98.00;;;;;;5034083;28;20459;-64
2023/08/01 07:56:08;;;;;;;4.60;2.60;;;18.70;98.00;;;;;;5034127;28;20470;-64
2023/08/01 07:58:36;;;;;;;7.30;2.70;;;18.50;98.00;;;;;;5033822;28;20455;-64
2023/08/01 08:01:07;;;;;;;4.40;3.00;;;18.40;98.00;;;;;;5034010;28;20921;-64
2023/08/01 08:03:36;;;;;;;4.30;2.97;;;18.30;98.00;;;;;;5033066;28;20512;-64
2023/08/01 08:06:05;;;;;;;6.83;2.93;;;18.30;98.00;;;;;;5049521;28;20481;-64
2023/08/01 08:08:33;;;;;;;6.33;3.00;;;18.30;98.00;;;;;;5053666;28;20457;-64
2023/08/01 08:11:01;;;;;;;6.63;3.23;;;18.20;98.00;;;;;;5053495;28;20454;-64
2023/08/01 08:13:28;;;;;;;4.73;3.10;;;18.20;98.00;;;;;;5053746;28;20535;-64
2023/08/01 08:15:57;;;;;;;8.90;3.40;;;18.10;98.00;;;;;;5053304;28;20457;-64
2023/08/01 08:18:26;;;;;;;5.67;2.70;;;18.10;98.00;;;;;;5036525;28;20454;-64
2023/08/01 08:20:53;;;;;;;4.23;2.60;;;18.10;98.00;;;;;;5053869;28;20454;-64
2023/08/01 08:23:20;;;;;;;4.80;2.60;;;18.00;98.00;;;;;;5053425;28;21067;-64
2023/08/01 08:25:49;;;;;;;4.80;2.70;;;18.00;98.00;;;;;;5054018;28;20486;-64
2023/08/01 08:28:28;;;;;;;4.40;2.30;;;17.90;98.00;;;;;;5054042;28;20468;-65
2023/08/01 08:30:55;;;;;;;4.00;2.50;;;17.90;98.00;;;;;;5054156;28;20458;-64
2023/08/01 08:33:22;;;;;;;8.50;2.87;;;18.00;98.00;;;;;;5054278;28;20450;-66
2023/08/01 08:35:50;;;;;;;5.00;2.80;;;18.00;98.00;;;;;;5053692;28;20481;-64
2023/08/01 08:38:18;;;;;;;7.37;3.00;;;17.90;98.00;;;;;;5054137;28;21058;-64
2023/08/01 08:41:00;;;;;;;4.23;2.50;;;17.80;98.00;;;;;;5053838;28;20556;-63
2023/08/01 08:43:27;;;;;;;5.17;2.83;;;17.80;98.00;;;;;;5053432;28;20461;-65
2023/08/01 08:45:58;;;;;;;5.33;2.87;;;17.80;98.00;;;;;;5033536;28;20478;-64
2023/08/01 08:48:27;;;;;;;5.40;2.87;;;17.70;98.00;;;;;;5048562;28;20457;-64
2023/08/01 08:50:58;;;;;;;5.83;2.70;;;17.70;98.00;;;;;;5052931;28;20461;-64
2023/08/01 08:53:26;;;;;;;4.67;2.63;;;17.80;98.00;;;;;;5053346;28;20453;-64
2023/08/01 08:55:55;;;;;;;9.00;2.80;;;17.80;98.00;;;;;;5035605;28;20527;-64
2023/08/01 08:58:22;;;;;;;5.00;2.77;;;17.90;98.00;;;;;;5053492;28;20518;-64
2023/08/01 09:00:50;;;;;;;4.70;2.40;;;18.00;98.00;;;;;;5052892;28;20442;-64
2023/08/01 09:03:16;;;;;;;4.37;2.60;;;18.20;98.00;;;;;;5034716;28;20458;-64
2023/08/01 09:05:49;;;;;;;5.97;2.60;;;18.20;98.00;;;;;;5052486;28;21033;-65
2023/08/01 09:08:20;;;;;;;3.60;2.40;;;18.40;98.00;;;;;;5052690;28;20457;-64
2023/08/01 09:10:48;;;;;;;3.53;2.40;;;18.50;98.00;;;;;;5052636;28;20508;-64
2023/08/01 09:13:15;;;;;;;4.80;2.83;;;18.60;98.00;;;;;;5052735;28;20858;-64
2023/08/01 09:15:43;;;;;;;6.07;3.20;;;18.60;98.00;;;;;;5052508;28;20499;-64
2023/08/01 09:18:11;;;;;;;6.73;2.87;;;18.70;98.00;;;;;;5052434;28;20457;-64
2023/08/01 09:20:43;;;;;;;3.07;2.30;;;18.80;98.00;;;;;;5052443;28;20457;-65
2023/08/01 09:23:10;;;;;;;4.40;2.70;;;18.90;98.00;;;;;;5051106;28;20939;-64
2023/08/01 09:25:39;;;;;;;6.03;2.40;;;18.90;98.00;;;;;;5052057;28;21007;-64
2023/08/01 09:28:17;;;;;;;3.27;2.20;;;19.00;98.00;;;;;;5052278;28;20945;-64
2023/08/01 09:30:49;;;;;;;3.87;2.40;;;18.90;98.00;;;;;;5052137;28;20854;-64
2023/08/01 09:33:16;;;;;;;5.80;2.93;;;18.90;98.00;;;;;;5052337;28;20450;-64
2023/08/01 09:35:45;;;;;;;2.90;2.13;;;18.70;98.00;;;;;;5052184;28;20488;-64
2023/08/01 09:38:15;;;;;;;4.00;2.63;;;18.70;98.00;;;;;;5052389;28;20511;-64
2023/08/01 09:40:44;;;;;;;3.97;2.60;;;18.60;98.00;;;;;;5052097;28;20878;-64
2023/08/01 09:43:12;;;;;;;3.40;2.20;;;18.60;98.00;;;;;;5052186;28;20679;-64
2023/08/01 09:45:49;;;;;;;4.00;2.33;;;18.60;98.00;;;;;;5051812;28;20482;-64
2023/08/01 09:48:25;;;;;;;3.60;2.10;;;18.70;98.00;;;;;;5051932;28;20460;-64
2023/08/01 09:50:53;;;;;;;3.10;2.20;;;18.70;98.00;;;;;;5052025;28;20481;-64
2023/08/01 09:53:20;;;;;;;2.50;1.87;;;18.70;98.00;;;;;;5034371;28;20446;-64
2023/08/01 09:55:51;;;;;;;3.90;1.83;;;18.80;98.00;;;;;;5051661;28;20477;-64
2023/08/01 09:58:23;;;;;;;2.83;1.90;;;18.80;98.00;;;;;;5021696;28;20494;-64
2023/08/01 10:00:50;;;;;;;2.93;2.00;;;18.80;98.00;;;;;;5031779;28;20457;-64
2023/08/01 10:03:18;;;;;;;3.00;1.90;;;18.80;98.00;;;;;;5031419;28;20469;-64
2023/08/01 10:05:46;;;;;;;3.60;1.93;;;18.90;98.00;;;;;;5031796;28;21027;-64
2023/08/01 10:08:15;;;;;;;2.70;1.80;;;18.90;98.00;;;;;;5014106;28;20953;-64
2023/08/01 10:10:44;;;;;;;4.63;1.60;;;18.90;98.00;;;;;;5031492;28;20823;-65
2023/08/01 10:13:14;;;;;;;3.03;1.87;;;18.90;98.00;;;;;;5014057;28;21012;-66
2023/08/01 10:15:42;;;;;;;3.10;2.00;;;19.00;98.00;;;;;;5030735;28;20446;-66
2023/08/01 10:18:10;;;;;;;2.73;1.70;;;19.10;98.00;;;;;;5031878;28;20458;-65
2023/08/01 10:20:38;;;;;;;2.63;1.80;;;19.20;98.00;;;;;;5031142;28;20479;-65
2023/08/01 10:23:06;;;;;;;2.20;1.80;;;19.30;98.00;;;;;;5031314;28;20477;-64
2023/08/01 10:25:33;;;;;;;2.87;2.10;;;19.30;98.00;;;;;;5031252;28;20447;-65
2023/08/01 10:28:02;;;;;;;2.50;1.57;;;19.30;98.00;;;;;;5014096;28;20929;-65
2023/08/01 10:30:31;;;;;;;2.67;1.80;;;19.30;98.00;;;;;;5031997;28;20458;-65
2023/08/01 10:33:03;;;;;;;2.07;1.67;;;19.50;98.00;;;;;;5032266;28;20474;-65
2023/08/01 10:35:36;;;;;;;4.13;2.20;;;19.50;98.00;;;;;;5031877;28;20453;-68
2023/08/01 10:38:09;;;;;;;2.33;1.70;;;19.60;98.00;;;;;;5014517;28;20458;-65
2023/08/01 10:40:37;;;;;;;1.80;1.60;;;19.50;98.00;;;;;;5014687;28;20486;-67
2023/08/01 10:43:05;;;;;;;2.60;1.73;;;19.50;98.00;;;;;;5014318;28;20538;-65
2023/08/01 10:45:33;;;;;;;2.63;1.87;;;19.70;98.00;;;;;;5031893;28;20458;-66
2023/08/01 10:48:11;;;;;;;2.57;1.70;;;19.70;98.00;;;;;;5031520;28;20451;-65
2023/08/01 10:50:38;;;;;;;2.20;1.70;;;19.70;98.00;;;;;;5031569;28;20458;-66
2023/08/01 10:53:06;;;;;;;1.80;1.60;;;19.90;98.00;;;;;;5031703;28;20479;-66
2023/08/01 10:55:44;;;;;;;2.53;1.53;;;19.90;98.00;;;;;;5031519;28;20459;-66
2023/08/01 10:58:13;;;;;;;1.57;1.57;;;20.10;98.00;;;;;;5031588;28;20541;-65
2023/08/01 11:11:03;;;;;;;2.30;1.73;;;21.40;98.00;;;;;;4990900;28;20439;-91
2023/08/01 11:13:30;;;;;;;2.43;1.90;;;22.10;98.00;;;;;;4991443;28;20506;-91
2023/08/01 11:15:58;;;;;;;2.00;1.60;;;22.50;98.00;;;;;;5045799;28;20446;-91
2023/08/01 11:18:25;;;;;;;2.57;1.87;;;22.40;98.00;;;;;;5052218;28;20936;-91
2023/08/01 11:20:52;;;;;;;2.17;1.63;;;22.20;98.00;;;;;;5052565;28;20473;-91
2023/08/01 11:23:29;;;;;;;3.13;1.70;;;21.90;98.00;;;;;;5052239;28;20446;-90
2023/08/01 11:25:57;;;;;;;2.37;1.63;;;21.50;98.00;;;;;;5053140;28;20430;-90
2023/08/01 11:28:26;;;;;;;3.13;1.90;;;21.30;98.00;;;;;;5055683;28;20457;-90
2023/08/01 11:30:53;;;;;;;1.77;1.50;;;21.20;98.00;;;;;;5056103;28;20483;-90
2023/08/01 11:33:21;;;;;;;2.70;1.60;;;21.20;98.00;;;;;;5056193;28;20465;-91
2023/08/01 11:35:53;;;;;;;1.60;1.40;;;21.40;98.00;;;;;;5055895;28;20450;-91
2023/08/01 11:38:21;;;;;;;3.13;2.00;;;21.50;98.00;;;;;;5056296;28;20457;-91
2023/08/01 11:40:50;;;;;;;2.27;1.50;;;22.00;98.00;;;;;;5056161;28;20481;-90
2023/08/01 11:43:17;;;;;;;1.67;1.40;;;22.50;98.00;;;;;;5055681;28;20500;-89
2023/08/01 11:45:54;;;;;;;2.10;1.50;;;23.30;98.00;;;;;;5055966;28;20450;-91
2023/08/01 11:48:22;;;;;;;2.47;1.70;;;23.80;98.00;;;;;;5055428;28;20449;-89
2023/08/01 11:51:04;;;;;;;3.13;1.53;;;24.10;98.00;;;;;;5056566;28;20481;-91
2023/08/01 11:53:37;;;;;;;1.40;1.40;;;23.90;98.00;;;;;;5057533;28;20488;-91
2023/08/01 11:56:21;;;;;;;1.70;1.30;;;23.60;98.00;;;;;;5057181;28;20823;-91
2023/08/01 11:58:50;;;;;;;1.90;1.50;;;23.10;98.00;;;;;;5057775;28;20484;-91
2023/08/01 12:01:20;;;;;;;1.70;1.50;;;22.70;98.00;;;;;;5056994;28;20519;-90
2023/08/01 12:03:58;;;;;;;1.90;1.40;;;23.00;98.00;;;;;;5055863;28;20449;-90
2023/08/01 12:06:36;;;;;;;3.30;1.50;;;23.10;98.00;;;;;;5056624;28;20484;-92
2023/08/01 12:12:20;;;;;;;2.23;1.77;;;22.70;98.00;;;;;;5016455;28;20475;-94
2023/08/01 13:01:32;;;;;;;2.97;1.90;;;24.90;98.00;;;;;;5014972;22;20593;-66
2023/08/01 13:03:59;;;;;;;2.97;1.70;;;24.90;98.00;;;;;;5053034;28;20959;-66
2023/08/01 13:06:26;;;;;;;2.73;1.47;;;24.80;98.00;;;;;;5052849;28;20477;-66
2023/08/01 13:08:54;;;;;;;1.87;1.50;;;24.70;98.00;;;;;;5035125;28;20454;-66
2023/08/01 13:11:21;;;;;;;2.80;2.10;;;24.10;98.00;;;;;;5052878;28;20461;-66
2023/08/01 13:13:48;;;;;;;1.70;1.50;;;24.00;98.00;;;;;;5052794;28;20816;-67
2023/08/01 13:16:15;;;;;;;1.77;1.70;;;24.30;97.50;;;;;;5052788;28;20458;-66
2023/08/01 13:18:45;;;;;;;1.70;1.60;;;24.20;98.00;;;;;;5035263;28;20449;-66
2023/08/01 13:21:13;;;;;;;1.90;1.70;;;24.40;97.20;;;;;;5052918;28;20524;-67
2023/08/01 13:23:40;;;;;;;2.17;1.60;;;24.30;97.30;;;;;;5052672;28;20461;-67
2023/08/01 13:26:07;;;;;;;1.53;1.47;;;24.50;98.00;;;;;;5052701;28;20529;-66
2023/08/01 13:28:35;;;;;;;2.40;1.80;;;24.30;97.10;;;;;;5052392;28;20454;-66
2023/08/01 13:31:02;;;;;;;2.33;1.87;;;23.90;98.00;;;;;;5052423;28;20457;-66
2023/08/01 13:33:29;;;;;;;1.83;1.60;;;23.50;98.00;;;;;;5052373;28;20457;-66
2023/08/01 13:35:58;;;;;;;2.33;1.53;;;23.10;98.00;;;;;;5052540;28;20468;-66
2023/08/01 13:38:25;;;;;;;1.50;1.40;;;22.80;98.00;;;;;;5052212;28;20442;-65
2023/08/01 13:40:52;;;;;;;2.37;1.70;;;22.40;98.00;;;;;;5052294;28;20955;-66
2023/08/01 13:43:19;;;;;;;1.87;1.60;;;22.20;98.00;;;;;;5052425;28;20449;-66
2023/08/01 13:45:46;;;;;;;2.03;1.83;;;22.70;98.00;;;;;;5052286;28;20453;-66
2023/08/01 13:48:13;;;;;;;2.13;1.70;;;23.50;98.00;;;;;;5052121;28;20547;-66
2023/08/01 13:50:40;;;;;;;2.33;1.60;;;24.20;98.00;;;;;;5050972;28;20458;-66
2023/08/01 13:53:11;;;;;;;1.80;1.70;;;24.60;97.60;;;;;;5052057;28;20457;-66